Taiou Maru — JD3273 — position and weather

sailwx.info

Track history (hours):
 
Tides and Currents Weather Stations Pressure Air Temp Water Temp Dewpoint Dewpoint Depression Visibility Wind Speed Wind Dir Waves Ship Positions

Taiou Maru

Last reported at 2018-Jun-24 22:29 UTC. Time now 2018-Jun-24 22:31 UTC.
Position N 35°30' E 139°48'.

Length 72 m; draft 4.2 m.

Type: Ship. MMSI: 431003171.

Date/timePositionNaut miles runAvg speedWind from/ knotsBaromVisibWave heightAir tempDewpointWater temp
2018-Jun-24 22:29N 35°30' E 139°48'1 1.4
2018-Jun-24 22:00N 35°29' E 139°49'0 0.0
2018-Jun-24 21:30N 35°29' E 139°49'0 0.0
2018-Jun-24 21:00N 35°29' E 139°49'0 0.0
2018-Jun-24 20:30N 35°29' E 139°49'0 0.0
2018-Jun-24 20:00N 35°29' E 139°49'0 0.1
2018-Jun-24 19:30N 35°29' E 139°49'0 0.0
2018-Jun-24 18:45N 35°29' E 139°49'0 0.0
2018-Jun-24 18:24N 35°29' E 139°49'0 0.0
2018-Jun-24 17:57N 35°29' E 139°49'0 0.0
2018-Jun-24 17:15N 35°29' E 139°49'0 0.0
2018-Jun-24 17:00N 35°29' E 139°49'0 0.1
2018-Jun-24 16:30N 35°29' E 139°49'0 0.1
2018-Jun-24 16:00N 35°29' E 139°49'0 0.1
2018-Jun-24 15:27N 35°29' E 139°49'0 0.0
2018-Jun-24 14:54N 35°29' E 139°49'0 0.0
2018-Jun-24 14:30N 35°29' E 139°49'0 0.1
2018-Jun-24 14:00N 35°29' E 139°49'0 0.0
2018-Jun-24 12:51N 35°29' E 139°49'0 0.0
2018-Jun-24 12:30N 35°29' E 139°49'0 0.0
2018-Jun-24 12:00N 35°29' E 139°49'0 0.0
2018-Jun-24 11:30N 35°29' E 139°49'0 0.0
2018-Jun-24 11:00N 35°29' E 139°49'0 0.0
2018-Jun-24 10:27N 35°29' E 139°49'0 0.0
2018-Jun-24 09:54N 35°29' E 139°49'0 0.0
2018-Jun-24 09:30N 35°29' E 139°49'0 0.0
2018-Jun-24 09:00N 35°29' E 139°49'0 0.1
2018-Jun-24 08:15N 35°29' E 139°49'0 0.0
2018-Jun-24 07:57N 35°29' E 139°49'0 0.0
2018-Jun-24 07:27N 35°29' E 139°49'0 0.0
2018-Jun-24 07:00N 35°29' E 139°49'0 0.0
2018-Jun-24 06:21N 35°29' E 139°49'0 0.0
2018-Jun-24 06:00N 35°29' E 139°49'0 0.0
2018-Jun-24 05:27N 35°29' E 139°49'0 0.0
2018-Jun-24 05:00N 35°29' E 139°49'0 0.0
2018-Jun-24 04:21N 35°29' E 139°49'0 0.1
2018-Jun-24 04:00N 35°29' E 139°49'0 0.1
2018-Jun-24 03:21N 35°29' E 139°49'0 0.0
2018-Jun-24 03:00N 35°29' E 139°49'0 0.0
2018-Jun-24 02:27N 35°29' E 139°49'0 0.0
2018-Jun-24 02:00N 35°29' E 139°49'0 0.0
2018-Jun-24 01:30N 35°29' E 139°49'0 0.0
2018-Jun-24 01:00N 35°29' E 139°49'0 0.0
2018-Jun-24 00:30N 35°29' E 139°49'0 0.0
2018-Jun-24 00:00N 35°29' E 139°49'0 0.0
2018-Jun-23 23:30N 35°29' E 139°49'0 0.0
2018-Jun-23 22:59N 35°29' E 139°49'1 2.9
2018-Jun-23 22:30N 35°28' E 139°49'713.0
2018-Jun-23 22:00N 35°22' E 139°45'611.6
2018-Jun-23 21:30N 35°16' E 139°46'246 6.8
2018-Jun-22 09:06N 33°46' E 135°08'512.5
2018-Jun-22 08:42N 33°50' E 135°04'312.4
2018-Jun-22 08:28N 33°52' E 135°02'612.0
2018-Jun-22 07:59N 33°58' E 135°00'612.0
2018-Jun-22 07:30N 34°04' E 134°60'612.1
2018-Jun-22 06:59N 34°10' E 134°59'612.3
2018-Jun-22 06:30N 34°16' E 134°59'611.5
2018-Jun-22 06:00N 34°21' E 135°00'612.1
2018-Jun-22 05:30N 34°25' E 135°06'612.7
2018-Jun-22 05:00N 34°29' E 135°12'612.1
2018-Jun-22 04:30N 34°32' E 135°19'611.6
2018-Jun-22 04:00N 34°33' E 135°25'0 0.1
2018-Jun-21 22:44N 34°33' E 135°26'0 0.9
2018-Jun-21 22:30N 34°33' E 135°26'4 7.9
2018-Jun-21 21:57N 34°33' E 135°20'1 1.9
2018-Jun-21 21:26N 34°32' E 135°19'0 0.0
2018-Jun-21 20:56N 34°32' E 135°19'0 0.0
2018-Jun-21 20:20N 34°32' E 135°19'0 0.0
2018-Jun-21 19:56N 34°32' E 135°19'0 0.0
2018-Jun-21 19:26N 34°32' E 135°19'0 0.0
2018-Jun-21 18:56N 34°32' E 135°19'0 0.0
2018-Jun-21 18:26N 34°32' E 135°19'0 0.0
2018-Jun-21 17:56N 34°32' E 135°19'0 0.0
2018-Jun-21 17:20N 34°32' E 135°19'0 0.0
2018-Jun-21 16:56N 34°32' E 135°19'0 0.0
2018-Jun-21 16:26N 34°32' E 135°19'0 0.2
2018-Jun-21 15:50N 34°32' E 135°19'0 0.1
2018-Jun-21 15:02N 34°32' E 135°19'0 0.2
2018-Jun-21 14:50N 34°32' E 135°19'0 0.0
2018-Jun-21 14:20N 34°32' E 135°19'0 0.0
2018-Jun-21 13:44N 34°32' E 135°19'0 0.0
2018-Jun-21 13:26N 34°32' E 135°19'0 0.0
2018-Jun-21 12:56N 34°32' E 135°19'0 0.0
2018-Jun-21 12:26N 34°32' E 135°19'0 0.0
2018-Jun-21 11:56N 34°32' E 135°19'0 0.1
2018-Jun-21 11:26N 34°32' E 135°19'2 5.3
2018-Jun-21 11:01N 34°33' E 135°17'713.6
2018-Jun-21 10:31N 34°34' E 135°09'1912.4
2018-Jun-21 08:59N 34°32' E 134°46'712.8
2018-Jun-21 08:24N 34°29' E 134°37'512.9
2018-Jun-21 08:00N 34°27' E 134°32'612.8
2018-Jun-21 07:30N 34°25' E 134°25'3 0.2
2018-Jun-20 17:46N 34°25' E 134°21'2 8.3
2018-Jun-20 17:29N 34°26' E 134°24'4 8.2
2018-Jun-20 16:59N 34°27' E 134°28'4 8.3
2018-Jun-20 16:30N 34°29' E 134°33'4 8.4
2018-Jun-20 15:59N 34°30' E 134°38'4 8.8
2018-Jun-20 15:30N 34°32' E 134°42'510.5
2018-Jun-20 15:00N 34°34' E 134°48'812.9
2018-Jun-20 14:22N 34°37' E 134°57'411.3
2018-Jun-20 14:00N 34°37' E 135°02'5 9.2
2018-Jun-20 13:30N 34°33' E 135°05'612.1
2018-Jun-20 13:00N 34°27' E 135°03'611.7
2018-Jun-20 12:30N 34°21' E 135°01'511.0
2018-Jun-20 12:00N 34°16' E 134°59'611.0
2018-Jun-20 11:30N 34°10' E 134°60'611.8
2018-Jun-20 11:00N 34°04' E 135°00'611.4
2018-Jun-20 10:29N 33°58' E 135°01'511.2
2018-Jun-20 10:00N 33°53' E 135°01'  
Track history (hours):
 
Tides and Currents Weather Stations Pressure Air Temp Water Temp Dewpoint Dewpoint Depression Visibility Wind Speed Wind Dir Waves Ship Positions

Taiou Maru

Last reported at 2018-Jun-24 22:29 UTC. Time now 2018-Jun-24 22:31 UTC.
Position N 35°30' E 139°48'.

Length 72 m; draft 4.2 m.

Type: Ship. MMSI: 431003171.

Date/timePositionNaut miles runAvg speedWind from/ knotsBaromVisibWave heightAir tempDewpointWater temp
2018-Jun-24 22:29N 35°30' E 139°48'1 1.4
2018-Jun-24 22:00N 35°29' E 139°49'0 0.0
2018-Jun-24 21:30N 35°29' E 139°49'0 0.0
2018-Jun-24 21:00N 35°29' E 139°49'0 0.0
2018-Jun-24 20:30N 35°29' E 139°49'0 0.0
2018-Jun-24 20:00N 35°29' E 139°49'0 0.1
2018-Jun-24 19:30N 35°29' E 139°49'0 0.0
2018-Jun-24 18:45N 35°29' E 139°49'0 0.0
2018-Jun-24 18:24N 35°29' E 139°49'0 0.0
2018-Jun-24 17:57N 35°29' E 139°49'0 0.0
2018-Jun-24 17:15N 35°29' E 139°49'0 0.0
2018-Jun-24 17:00N 35°29' E 139°49'0 0.1
2018-Jun-24 16:30N 35°29' E 139°49'0 0.1
2018-Jun-24 16:00N 35°29' E 139°49'0 0.1
2018-Jun-24 15:27N 35°29' E 139°49'0 0.0
2018-Jun-24 14:54N 35°29' E 139°49'0 0.0
2018-Jun-24 14:30N 35°29' E 139°49'0 0.1
2018-Jun-24 14:00N 35°29' E 139°49'0 0.0
2018-Jun-24 12:51N 35°29' E 139°49'0 0.0
2018-Jun-24 12:30N 35°29' E 139°49'0 0.0
2018-Jun-24 12:00N 35°29' E 139°49'0 0.0
2018-Jun-24 11:30N 35°29' E 139°49'0 0.0
2018-Jun-24 11:00N 35°29' E 139°49'0 0.0
2018-Jun-24 10:27N 35°29' E 139°49'0 0.0
2018-Jun-24 09:54N 35°29' E 139°49'0 0.0
2018-Jun-24 09:30N 35°29' E 139°49'0 0.0
2018-Jun-24 09:00N 35°29' E 139°49'0 0.1
2018-Jun-24 08:15N 35°29' E 139°49'0 0.0
2018-Jun-24 07:57N 35°29' E 139°49'0 0.0
2018-Jun-24 07:27N 35°29' E 139°49'0 0.0
2018-Jun-24 07:00N 35°29' E 139°49'0 0.0
2018-Jun-24 06:21N 35°29' E 139°49'0 0.0
2018-Jun-24 06:00N 35°29' E 139°49'0 0.0
2018-Jun-24 05:27N 35°29' E 139°49'0 0.0
2018-Jun-24 05:00N 35°29' E 139°49'0 0.0
2018-Jun-24 04:21N 35°29' E 139°49'0 0.1
2018-Jun-24 04:00N 35°29' E 139°49'0 0.1
2018-Jun-24 03:21N 35°29' E 139°49'0 0.0
2018-Jun-24 03:00N 35°29' E 139°49'0 0.0
2018-Jun-24 02:27N 35°29' E 139°49'0 0.0
2018-Jun-24 02:00N 35°29' E 139°49'0 0.0
2018-Jun-24 01:30N 35°29' E 139°49'0 0.0
2018-Jun-24 01:00N 35°29' E 139°49'0 0.0
2018-Jun-24 00:30N 35°29' E 139°49'0 0.0
2018-Jun-24 00:00N 35°29' E 139°49'0 0.0
2018-Jun-23 23:30N 35°29' E 139°49'0 0.0
2018-Jun-23 22:59N 35°29' E 139°49'1 2.9
2018-Jun-23 22:30N 35°28' E 139°49'713.0
2018-Jun-23 22:00N 35°22' E 139°45'611.6
2018-Jun-23 21:30N 35°16' E 139°46'246 6.8
2018-Jun-22 09:06N 33°46' E 135°08'512.5
2018-Jun-22 08:42N 33°50' E 135°04'312.4
2018-Jun-22 08:28N 33°52' E 135°02'612.0
2018-Jun-22 07:59N 33°58' E 135°00'612.0
2018-Jun-22 07:30N 34°04' E 134°60'612.1
2018-Jun-22 06:59N 34°10' E 134°59'612.3
2018-Jun-22 06:30N 34°16' E 134°59'611.5
2018-Jun-22 06:00N 34°21' E 135°00'612.1
2018-Jun-22 05:30N 34°25' E 135°06'612.7
2018-Jun-22 05:00N 34°29' E 135°12'612.1
2018-Jun-22 04:30N 34°32' E 135°19'611.6
2018-Jun-22 04:00N 34°33' E 135°25'0 0.1
2018-Jun-21 22:44N 34°33' E 135°26'0 0.9
2018-Jun-21 22:30N 34°33' E 135°26'4 7.9
2018-Jun-21 21:57N 34°33' E 135°20'1 1.9
2018-Jun-21 21:26N 34°32' E 135°19'0 0.0
2018-Jun-21 20:56N 34°32' E 135°19'0 0.0
2018-Jun-21 20:20N 34°32' E 135°19'0 0.0
2018-Jun-21 19:56N 34°32' E 135°19'0 0.0
2018-Jun-21 19:26N 34°32' E 135°19'0 0.0
2018-Jun-21 18:56N 34°32' E 135°19'0 0.0
2018-Jun-21 18:26N 34°32' E 135°19'0 0.0
2018-Jun-21 17:56N 34°32' E 135°19'0 0.0
2018-Jun-21 17:20N 34°32' E 135°19'0 0.0
2018-Jun-21 16:56N 34°32' E 135°19'0 0.0
2018-Jun-21 16:26N 34°32' E 135°19'0 0.2
2018-Jun-21 15:50N 34°32' E 135°19'0 0.1
2018-Jun-21 15:02N 34°32' E 135°19'0 0.2
2018-Jun-21 14:50N 34°32' E 135°19'0 0.0
2018-Jun-21 14:20N 34°32' E 135°19'0 0.0
2018-Jun-21 13:44N 34°32' E 135°19'0 0.0
2018-Jun-21 13:26N 34°32' E 135°19'0 0.0
2018-Jun-21 12:56N 34°32' E 135°19'0 0.0
2018-Jun-21 12:26N 34°32' E 135°19'0 0.0
2018-Jun-21 11:56N 34°32' E 135°19'0 0.1
2018-Jun-21 11:26N 34°32' E 135°19'2 5.3
2018-Jun-21 11:01N 34°33' E 135°17'713.6
2018-Jun-21 10:31N 34°34' E 135°09'1912.4
2018-Jun-21 08:59N 34°32' E 134°46'712.8
2018-Jun-21 08:24N 34°29' E 134°37'512.9
2018-Jun-21 08:00N 34°27' E 134°32'612.8
2018-Jun-21 07:30N 34°25' E 134°25'3 0.2
2018-Jun-20 17:46N 34°25' E 134°21'2 8.3
2018-Jun-20 17:29N 34°26' E 134°24'4 8.2
2018-Jun-20 16:59N 34°27' E 134°28'4 8.3
2018-Jun-20 16:30N 34°29' E 134°33'4 8.4
2018-Jun-20 15:59N 34°30' E 134°38'4 8.8
2018-Jun-20 15:30N 34°32' E 134°42'510.5
2018-Jun-20 15:00N 34°34' E 134°48'812.9
2018-Jun-20 14:22N 34°37' E 134°57'411.3
2018-Jun-20 14:00N 34°37' E 135°02'5 9.2
2018-Jun-20 13:30N 34°33' E 135°05'612.1
2018-Jun-20 13:00N 34°27' E 135°03'611.7
2018-Jun-20 12:30N 34°21' E 135°01'511.0
2018-Jun-20 12:00N 34°16' E 134°59'611.0
2018-Jun-20 11:30N 34°10' E 134°60'611.8
2018-Jun-20 11:00N 34°04' E 135°00'611.4
2018-Jun-20 10:29N 33°58' E 135°01'511.2
2018-Jun-20 10:00N 33°53' E 135°01'  

Dump ship's entire track history